Time;durP1;ratioP1;P1;durP2;ratioP2;P2;SDS_P1;SDS_P2;PMS_P1;PMS_P2;Temp;Humidity;BMP_temperature;BMP_pressure;BME280_temperature;BME280_humidity;BME280_pressure;Samples;Min_cycle;Max_cycle;Signal;HPM_P1;HPM_P2
2022/01/10 00:00:31;;;;;;;5.22;0.85;;;;;;;0.92;54.64;100859.97;5030408;28;20640;-72
2022/01/10 00:02:58;;;;;;;5.55;0.57;;;;;;;0.82;54.63;100864.28;5049672;28;20036;-72
2022/01/10 00:05:24;;;;;;;8.95;0.85;;;;;;;0.76;54.66;100870.28;5032328;28;20051;-73
2022/01/10 00:07:49;;;;;;;15.35;1.00;;;;;;;0.65;55.40;100871.97;5056366;28;20052;-73
2022/01/10 00:10:18;;;;;;;3.53;0.50;;;;;;;0.71;54.88;100868.56;5042105;28;20519;-73
2022/01/10 00:12:44;;;;;;;9.55;1.13;;;;;;;0.70;54.97;100872.81;5047526;28;20068;-71
2022/01/10 00:15:11;;;;;;;8.73;1.00;;;;;;;0.58;54.91;100876.25;5039929;28;20060;-70
2022/01/10 00:17:38;;;;;;;5.53;0.98;;;;;;;0.54;54.98;100889.09;5038415;28;20131;-70
2022/01/10 00:20:08;;;;;;;6.90;0.90;;;;;;;0.57;55.51;100884.84;5032672;28;20057;-70
2022/01/10 00:22:37;;;;;;;11.00;1.13;;;;;;;0.56;55.91;100887.41;5040762;28;20025;-69
2022/01/10 00:25:04;;;;;;;8.88;1.10;;;;;;;0.60;55.37;100887.41;5046799;28;20041;-70
2022/01/10 00:27:30;;;;;;;5.65;0.93;;;;;;;0.53;55.05;100893.41;5054653;28;20028;-71
2022/01/10 00:29:56;;;;;;;6.90;1.08;;;;;;;0.54;55.40;100900.25;5040206;28;20108;-72
2022/01/10 00:32:23;;;;;;;5.68;0.95;;;;;;;0.57;55.26;100909.69;5038858;28;20033;-73
2022/01/10 00:34:49;;;;;;;10.10;0.98;;;;;;;0.47;56.40;100919.09;5042408;28;20103;-71
2022/01/10 00:37:15;;;;;;;15.55;1.45;;;;;;;0.44;56.28;100913.97;5038005;28;20780;-72
2022/01/10 00:39:41;;;;;;;7.63;1.20;;;;;;;0.58;56.13;100919.97;5031499;28;20139;-72
2022/01/10 00:42:07;;;;;;;13.27;1.98;;;;;;;0.53;56.25;100926.84;5054433;28;20036;-71
2022/01/10 00:44:38;;;;;;;7.13;1.48;;;;;;;0.58;56.13;100925.13;5021687;28;20037;-71
2022/01/10 00:47:04;;;;;;;7.97;1.85;;;;;;;0.69;55.18;100938.00;5040314;28;20040;-71
2022/01/10 00:49:32;;;;;;;4.75;1.33;;;;;;;0.69;55.34;100941.44;5050118;28;20064;-71
2022/01/10 00:52:00;;;;;;;7.60;1.52;;;;;;;0.62;55.58;100950.00;5038200;28;20071;-71
2022/01/10 00:54:26;;;;;;;12.68;1.23;;;;;;;0.57;55.97;100951.72;5031317;28;20037;-71
2022/01/10 00:56:54;;;;;;;11.82;1.80;;;;;;;0.60;55.87;100951.72;5036090;28;20412;-71
2022/01/10 00:59:19;;;;;;;8.63;0.93;;;;;;;0.65;55.78;100962.84;5052291;28;20033;-72
2022/01/10 01:01:45;;;;;;;15.20;1.33;;;;;;;0.62;55.98;100956.88;5046322;28;20037;-72
2022/01/10 01:04:11;;;;;;;6.68;1.15;;;;;;;0.62;56.09;100965.44;5039123;28;20674;-71
2022/01/10 01:06:37;;;;;;;13.30;1.77;;;;;;;0.55;56.22;100984.28;5020700;28;20132;-71
2022/01/10 01:09:07;;;;;;;14.15;1.52;;;;;;;0.31;57.36;100979.06;5035075;28;20044;-71
2022/01/10 01:17:13;;;;;;;6.70;2.15;;;;;;;0.63;56.23;100997.16;5036398;28;20281;-70
2022/01/10 01:25:30;;;;;;;6.28;1.42;;;;;;;0.57;56.27;101020.28;4996851;28;20803;-70
2022/01/10 01:27:55;;;;;;;8.27;1.13;;;;;;;0.54;56.24;101022.84;5012826;28;20515;-70
2022/01/10 01:30:21;;;;;;;8.25;1.55;;;;;;;0.62;56.02;101027.19;5016361;28;20040;-70
2022/01/10 01:32:46;;;;;;;7.00;1.77;;;;;;;0.66;55.84;101033.19;5036135;28;20559;-70
2022/01/10 01:35:12;;;;;;;6.45;1.38;;;;;;;0.71;55.77;101038.38;5034406;28;20042;-71
2022/01/10 01:37:38;;;;;;;16.83;2.08;;;;;;;0.72;55.34;101043.50;5023824;28;20021;-72
2022/01/10 01:40:08;;;;;;;13.45;2.22;;;;;;;0.58;55.53;101050.31;5048617;28;20052;-71
2022/01/10 01:42:38;;;;;;;12.98;1.92;;;;;;;0.64;55.46;101046.06;5037739;28;20538;-70
2022/01/10 01:45:08;;;;;;;9.47;2.63;;;;;;;0.64;55.47;101053.75;5039207;28;20068;-71
2022/01/10 01:47:34;;;;;;;11.30;1.70;;;;;;;0.66;55.38;101057.22;5019680;28;20376;-71
2022/01/10 01:50:04;;;;;;;8.07;1.80;;;;;;;0.62;55.32;101063.19;5022902;28;20037;-70
2022/01/10 01:52:29;;;;;;;6.57;1.08;;;;;;;0.58;55.29;101071.75;5052742;28;20545;-70
2022/01/10 01:55:04;;;;;;;8.80;1.05;;;;;;;0.51;55.17;101080.28;5035768;28;20032;-72
2022/01/10 01:57:30;;;;;;;7.88;1.10;;;;;;;0.57;54.98;101077.75;5034595;28;20043;-71
2022/01/10 01:59:56;;;;;;;3.90;1.58;;;;;;;0.50;54.85;101088.84;5022267;28;20032;-71
2022/01/10 02:02:22;;;;;;;6.22;1.10;;;;;;;0.48;54.76;101085.44;5031376;28;20042;-71
2022/01/10 02:04:47;;;;;;;10.50;0.93;;;;;;;0.46;54.63;101093.13;5032677;28;20128;-71
2022/01/10 02:07:13;;;;;;;6.75;1.27;;;;;;;0.38;55.13;101101.63;5048063;28;20032;-71
2022/01/10 02:09:41;;;;;;;8.27;0.70;;;;;;;0.40;55.56;101110.22;5020581;28;20060;-71
2022/01/10 02:12:09;;;;;;;12.50;1.45;;;;;;;0.24;55.71;101106.69;5038652;28;20103;-70
2022/01/10 02:14:40;;;;;;;16.98;2.13;;;;;;;0.32;55.30;101114.44;5034937;28;20226;-69
2022/01/10 02:17:09;;;;;;;6.60;1.17;;;;;;;0.34;55.71;101112.75;5037458;28;20061;-70
2022/01/10 02:19:56;;;;;;;6.13;1.35;;;;;;;0.36;55.25;101116.19;5042407;28;20043;-70
2022/01/10 02:22:25;;;;;;;5.72;0.90;;;;;;;0.33;55.23;101126.47;5022072;28;20090;-70
2022/01/10 02:25:20;;;;;;;11.18;2.05;;;;;;;0.18;55.50;101133.22;4993057;28;20124;-71
2022/01/10 02:27:48;;;;;;;9.07;1.65;;;;;;;0.19;55.51;101140.09;5053368;28;20123;-71
2022/01/10 02:30:14;;;;;;;7.40;1.65;;;;;;;0.22;55.22;101149.53;5033586;28;20033;-71
2022/01/10 02:32:40;;;;;;;8.23;1.05;;;;;;;0.14;55.09;101146.03;5012165;28;20037;-71
2022/01/10 02:35:20;;;;;;;4.25;0.95;;;;;;;0.08;54.56;101146.88;5038641;28;20033;-71
2022/01/10 02:37:48;;;;;;;7.30;1.73;;;;;;;0.03;55.27;101145.94;5021785;28;20055;-71
2022/01/10 02:40:19;;;;;;;11.82;1.55;;;;;;;0.01;55.69;101166.50;5015405;28;20407;-71
2022/01/10 02:42:47;;;;;;;6.00;1.23;;;;;;;0.07;55.23;101165.69;5044453;28;20435;-71
2022/01/10 02:45:13;;;;;;;3.78;0.73;;;;;;;0.06;54.92;101166.56;5035270;28;20037;-71
2022/01/10 02:47:39;;;;;;;11.32;1.50;;;;;;;-0.03;55.53;101171.63;5032429;28;20028;-70
2022/01/10 02:50:05;;;;;;;11.32;1.17;;;;;;;-0.03;55.50;101169.03;5041971;28;20526;-71
2022/01/10 02:52:34;;;;;;;4.45;1.23;;;;;;;-0.01;55.16;101172.50;5029898;28;20406;-70
2022/01/10 02:55:04;;;;;;;7.55;1.33;;;;;;;-0.06;55.33;101179.28;5036296;28;20153;-70
2022/01/10 02:57:31;;;;;;;14.52;2.35;;;;;;;-0.13;56.44;101188.63;5036491;28;20518;-71
2022/01/10 02:59:59;;;;;;;5.70;1.27;;;;;;;-0.02;55.70;101192.16;5037832;28;20044;-70
2022/01/10 03:02:30;;;;;;;10.43;1.40;;;;;;;0.02;55.27;101203.34;5050373;28;20143;-68
2022/01/10 03:04:55;;;;;;;17.27;1.33;;;;;;;0.02;55.58;101204.19;5005130;28;20036;-68
2022/01/10 03:07:23;;;;;;;15.60;2.00;;;;;;;0.01;55.46;101202.50;5029714;28;20055;-68
2022/01/10 03:09:49;;;;;;;7.35;1.98;;;;;;;0.01;55.73;101209.31;5053774;28;20028;-68
2022/01/10 03:12:15;;;;;;;2.78;0.70;;;;;;;0.03;55.42;101213.66;5045498;28;20093;-68
2022/01/10 03:14:44;;;;;;;5.57;1.15;;;;;;;0.03;55.75;101216.22;5020601;28;20479;-68
2022/01/10 03:17:11;;;;;;;14.93;2.15;;;;;;;-0.17;57.19;101222.84;5033979;28;20508;-69
2022/01/10 03:19:37;;;;;;;10.77;1.80;;;;;;;0.07;56.30;101222.22;5042039;28;20278;-68
2022/01/10 03:22:04;;;;;;;13.15;2.95;;;;;;;-0.02;57.07;101227.28;5033992;28;20103;-68
2022/01/10 03:24:30;;;;;;;5.82;1.60;;;;;;;0.05;56.61;101234.19;5040523;28;20032;-68
2022/01/10 03:26:56;;;;;;;18.67;1.50;;;;;;;0.24;56.01;101230.97;5054660;28;20028;-68
2022/01/10 03:29:21;;;;;;;11.10;2.10;;;;;;;0.25;56.09;101236.94;5041372;28;20047;-69
2022/01/10 03:31:47;;;;;;;7.47;1.95;;;;;;;0.20;56.41;101257.47;5038331;28;20135;-69
2022/01/10 03:34:13;;;;;;;19.15;2.20;;;;;;;0.14;56.75;101247.13;5055126;28;20037;-68
2022/01/10 03:36:43;;;;;;;9.73;2.15;;;;;;;0.27;56.66;101251.53;5025047;28;20252;-69
2022/01/10 03:39:12;;;;;;;10.18;1.10;;;;;;;0.25;56.60;101260.09;5030413;28;20449;-73
2022/01/10 03:41:39;;;;;;;11.98;1.80;;;;;;;0.34;56.32;101254.16;5024080;28;20039;-72
2022/01/10 03:44:07;;;;;;;7.50;1.15;;;;;;;0.44;56.04;101263.69;5043065;28;20029;-70
2022/01/10 03:46:34;;;;;;;11.77;1.50;;;;;;;0.41;56.26;101268.81;5053892;28;20049;-70
2022/01/10 03:49:01;;;;;;;7.32;1.42;;;;;;;0.37;55.91;101272.22;5016687;28;20037;-70
2022/01/10 03:51:28;;;;;;;7.38;1.05;;;;;;;0.46;55.90;101273.16;5010428;28;20029;-71
2022/01/10 03:53:56;;;;;;;12.35;2.28;;;;;;;0.31;56.53;101279.88;5038312;28;20043;-70
2022/01/10 03:56:24;;;;;;;13.50;1.42;;;;;;;0.38;56.09;101284.22;5056585;28;20033;-70
2022/01/10 03:58:49;;;;;;;5.80;0.82;;;;;;;0.42;56.02;101285.97;5037694;28;20041;-70
2022/01/10 04:01:15;;;;;;;8.90;1.33;;;;;;;0.53;55.42;101284.34;5055784;28;20090;-70
2022/01/10 04:03:46;;;;;;;7.97;1.60;;;;;;;0.41;55.92;101295.41;5019295;28;20049;-70
2022/01/10 04:06:13;;;;;;;14.98;3.03;;;;;;;0.11;56.96;101295.09;5038117;28;20060;-70
2022/01/10 04:08:38;;;;;;;10.77;1.95;;;;;;;0.38;56.12;101300.50;5023515;28;20038;-70
2022/01/10 04:11:04;;;;;;;8.90;1.25;;;;;;;0.45;55.49;101312.56;5040405;28;20033;-71
2022/01/10 04:13:33;;;;;;;14.15;1.77;;;;;;;0.38;55.70;101307.34;5023403;28;20036;-72
2022/01/10 04:15:58;;;;;;;8.43;1.77;;;;;;;0.47;55.65;101313.44;5024456;28;20027;-72
2022/01/10 04:18:24;;;;;;;9.77;1.77;;;;;;;0.48;55.56;101319.47;5031780;28;20045;-71
2022/01/10 04:20:50;;;;;;;5.97;1.65;;;;;;;0.47;55.96;101328.88;5023372;28;21345;-71
2022/01/10 04:23:17;;;;;;;12.25;1.95;;;;;;;0.35;56.64;101335.63;5040353;28;20072;-71
2022/01/10 04:25:43;;;;;;;13.00;2.25;;;;;;;-0.07;58.06;101336.88;5028081;28;20114;-72
2022/01/10 04:28:09;;;;;;;7.63;1.67;;;;;;;0.38;56.79;101341.66;5031117;28;20586;-71
2022/01/10 04:30:35;;;;;;;10.77;1.77;;;;;;;0.42;56.69;101348.53;5041583;28;20237;-71
2022/01/10 04:33:05;;;;;;;16.55;1.73;;;;;;;0.54;56.02;101350.38;5035662;28;20044;-70
2022/01/10 04:35:31;;;;;;;13.25;2.85;;;;;;;0.44;56.67;101359.72;5027046;28;20040;-71
2022/01/10 04:37:59;;;;;;;8.85;2.47;;;;;;;0.45;56.18;101373.44;5021670;28;20037;-71
2022/01/10 04:40:27;;;;;;;14.57;2.85;;;;;;;0.27;56.59;101374.97;5040860;28;20645;-71
2022/01/10 04:42:54;;;;;;;12.35;2.35;;;;;;;0.42;56.76;101381.13;5037577;28;20032;-71
2022/01/10 04:45:20;;;;;;;7.57;1.60;;;;;;;0.47;56.48;101379.44;5032444;28;20399;-72
2022/01/10 04:47:48;;;;;;;7.32;2.08;;;;;;;0.57;56.43;101394.16;5018349;28;20044;-71
2022/01/10 04:52:44;;;;;;;9.38;2.00;;;;;;;0.58;55.46;101389.84;5032237;28;20045;-71
2022/01/10 04:55:11;;;;;;;15.05;1.65;;;;;;;0.45;55.81;101397.44;5037340;28;20053;-71
2022/01/10 04:57:36;;;;;;;10.48;2.30;;;;;;;0.53;55.76;101400.09;5023707;28;20140;-71
2022/01/10 05:00:04;;;;;;;15.50;2.58;;;;;;;0.53;55.61;101414.69;5035102;28;20036;-70
2022/01/10 05:02:30;;;;;;;7.32;3.47;;;;;;;0.52;55.93;101413.78;5033197;28;20037;-70
2022/01/10 05:04:55;;;;;;;14.73;2.10;;;;;;;0.23;56.58;101423.75;5050900;28;20576;-71
2022/01/10 05:07:21;;;;;;;7.15;1.77;;;;;;;0.47;56.00;101428.31;5026693;28;20561;-71
2022/01/10 05:09:51;;;;;;;10.18;2.40;;;;;;;0.47;56.36;101434.31;5028333;28;20123;-71
2022/01/10 05:12:20;;;;;;;12.48;2.15;;;;;;;0.50;55.84;101436.06;5039268;28;20326;-70
2022/01/10 05:14:45;;;;;;;9.85;2.42;;;;;;;0.57;55.54;101440.44;5053034;28;20044;-70
2022/01/10 05:17:11;;;;;;;9.00;1.63;;;;;;;0.47;56.01;101448.91;5030235;28;20072;-70
2022/01/10 05:19:39;;;;;;;10.73;2.63;;;;;;;0.47;55.63;101448.91;5053443;28;20043;-70
2022/01/10 05:22:05;;;;;;;7.80;2.85;;;;;;;0.46;55.76;101460.91;5029464;28;20495;-71
2022/01/10 05:24:32;;;;;;;5.93;2.78;;;;;;;0.48;55.88;101460.94;5037728;28;20039;-71
2022/01/10 05:26:57;;;;;;;11.35;2.42;;;;;;;0.54;55.56;101470.41;5020895;28;20032;-71
2022/01/10 05:29:30;;;;;;;16.48;2.45;;;;;;;0.47;55.93;101479.75;5039543;28;20407;-70
2022/01/10 05:31:56;;;;;;;6.70;2.13;;;;;;;0.44;55.52;101482.31;5046316;28;20043;-71
2022/01/10 05:34:30;;;;;;;8.05;1.65;;;;;;;0.48;55.16;101492.66;5037340;28;20028;-71
2022/01/10 05:36:55;;;;;;;7.43;2.42;;;;;;;0.48;55.30;101496.94;5035774;28;20036;-70
2022/01/10 05:39:23;;;;;;;5.10;2.20;;;;;;;0.42;55.28;101502.00;5047175;28;20406;-70
2022/01/10 05:41:49;;;;;;;8.77;2.22;;;;;;;0.42;55.55;101507.16;5034600;28;20041;-70
2022/01/10 05:44:14;;;;;;;9.50;2.25;;;;;;;0.40;55.50;101511.41;5039981;28;20040;-70
2022/01/10 05:46:46;;;;;;;20.17;2.85;;;;;;;0.40;55.57;101508.84;5041768;28;20056;-70
2022/01/10 05:49:13;;;;;;;7.07;2.07;;;;;;;0.41;55.38;101520.81;5024069;28;20082;-70
2022/01/10 05:51:42;;;;;;;7.75;2.50;;;;;;;0.27;55.37;101521.50;5038592;28;20032;-70
2022/01/10 05:54:30;;;;;;;9.38;2.33;;;;;;;0.26;55.57;101532.66;5023752;28;20051;-70
2022/01/10 05:56:56;;;;;;;15.15;2.38;;;;;;;0.32;55.39;101533.56;5038380;28;20050;-69
2022/01/10 05:59:25;;;;;;;8.07;2.38;;;;;;;0.17;54.92;101541.97;5020741;28;20207;-70
2022/01/10 06:01:51;;;;;;;10.02;2.40;;;;;;;0.15;55.43;101547.06;5023785;28;20039;-70
2022/01/10 06:04:22;;;;;;;7.82;1.45;;;;;;;0.15;54.95;101549.66;5026305;28;20029;-71
2022/01/10 06:06:48;;;;;;;10.30;2.22;;;;;;;0.09;55.32;101562.41;5005248;28;20035;-71
2022/01/10 06:09:13;;;;;;;12.13;2.28;;;;;;;0.05;55.64;101568.34;5040343;28;20494;-71
2022/01/10 06:11:40;;;;;;;4.38;2.17;;;;;;;0.05;55.55;101573.47;5038423;28;20032;-71
2022/01/10 06:14:08;;;;;;;17.90;3.28;;;;;;;0.05;55.19;101578.63;5010775;28;20045;-71
2022/01/10 06:16:35;;;;;;;10.63;2.65;;;;;;;-0.07;55.89;101584.44;5026051;28;20063;-70
2022/01/10 06:19:02;;;;;;;10.02;2.33;;;;;;;-0.05;54.79;101589.63;5037214;28;20048;-71
2022/01/10 06:21:30;;;;;;;5.38;2.22;;;;;;;-0.16;54.78;101590.31;5034030;28;20041;-71
2022/01/10 06:23:58;;;;;;;11.77;3.08;;;;;;;-0.16;55.14;101600.59;5039724;28;20653;-71
2022/01/10 06:26:24;;;;;;;6.90;2.65;;;;;;;-0.18;55.07;101602.25;5024292;28;20033;-71
2022/01/10 06:28:50;;;;;;;7.47;2.78;;;;;;;-0.28;55.19;101610.66;5031045;28;20032;-72
2022/01/10 06:31:15;;;;;;;9.95;3.05;;;;;;;-0.25;54.88;101615.84;5055021;28;20545;-72
2022/01/10 06:33:49;;;;;;;4.95;2.00;;;;;;;-0.36;54.73;101618.22;5037146;28;20112;-74
2022/01/10 06:36:15;;;;;;;6.47;2.28;;;;;;;-0.41;54.87;101634.41;5029040;28;20139;-72
2022/01/10 06:38:44;;;;;;;15.60;3.05;;;;;;;-0.40;54.86;101636.13;5017400;28;20041;-71
2022/01/10 06:41:11;;;;;;;6.15;2.17;;;;;;;-0.44;55.03;101644.63;5037451;28;20110;-73
2022/01/10 06:43:45;;;;;;;8.52;3.17;;;;;;;-0.46;55.17;101649.75;5012230;28;20052;-71
2022/01/10 06:46:18;;;;;;;15.55;3.58;;;;;;;-0.57;55.82;101648.69;5039306;28;20041;-72
2022/01/10 06:48:46;;;;;;;9.77;3.28;;;;;;;-0.45;55.01;101669.44;5009638;28;20153;-71
2022/01/10 06:51:11;;;;;;;7.10;2.97;;;;;;;-0.47;55.18;101668.53;5033942;28;20040;-71
2022/01/10 06:53:40;;;;;;;6.88;3.25;;;;;;;-0.48;55.33;101676.22;5046763;28;20047;-73
2022/01/10 06:56:06;;;;;;;17.23;4.25;;;;;;;-0.48;55.54;101692.50;5041825;28;20040;-72
2022/01/10 06:58:34;;;;;;;11.77;3.50;;;;;;;-0.37;55.77;101688.44;5041746;28;20039;-72
2022/01/10 07:01:06;;;;;;;10.90;3.20;;;;;;;-0.33;55.84;101693.63;5041724;28;20111;-71
2022/01/10 07:03:34;;;;;;;14.80;3.58;;;;;;;-0.46;56.91;101701.13;5038601;28;20414;-72
2022/01/10 07:06:12;;;;;;;13.48;2.95;;;;;;;-0.44;56.85;101706.25;5027496;28;20044;-71
2022/01/10 07:08:40;;;;;;;10.15;3.60;;;;;;;-0.38;56.81;101706.38;5006550;28;20037;-72
2022/01/10 07:11:08;;;;;;;9.88;2.72;;;;;;;-0.21;55.96;101717.84;5049174;28;20028;-73
2022/01/10 07:13:38;;;;;;;9.18;2.47;;;;;;;-0.22;55.99;101725.50;5034232;28;20037;-72
2022/01/10 07:16:06;;;;;;;24.55;3.95;;;;;;;-0.20;56.13;101732.41;5042934;28;20025;-72
2022/01/10 07:18:32;;;;;;;11.93;3.60;;;;;;;-0.23;55.96;101729.78;5034206;28;20048;-72
2022/01/10 07:21:01;;;;;;;13.40;3.88;;;;;;;-0.19;56.00;101733.25;5040078;28;20029;-75
2022/01/10 07:23:26;;;;;;;13.85;5.28;;;;;;;-0.14;55.67;101741.94;5026922;28;20113;-74
2022/01/10 07:25:52;;;;;;;11.05;4.50;;;;;;;-0.17;56.00;101747.91;5040071;28;20028;-73
2022/01/10 07:28:17;;;;;;;19.35;3.88;;;;;;;-0.14;55.76;101744.50;5036234;28;20130;-72
2022/01/10 07:30:43;;;;;;;15.48;3.97;;;;;;;-0.22;56.40;101756.34;5036890;28;20120;-72
2022/01/10 07:33:09;;;;;;;17.85;4.78;;;;;;;-0.22;56.13;101757.19;5025671;28;20465;-72
2022/01/10 07:35:34;;;;;;;10.73;5.32;;;;;;;-0.24;55.98;101766.59;5052018;28;20036;-72
2022/01/10 07:38:00;;;;;;;18.98;4.03;;;;;;;-0.23;55.98;101770.91;5038023;28;20125;-72
2022/01/10 07:40:26;;;;;;;18.35;5.30;;;;;;;-0.26;56.07;101768.28;5054891;28;20154;-72
2022/01/10 07:42:52;;;;;;;15.95;3.97;;;;;;;-0.23;56.19;101780.31;5033542;28;20131;-71
2022/01/10 07:45:32;;;;;;;11.15;4.80;;;;;;;-0.19;55.63;101777.84;5028528;28;20037;-73
2022/01/10 07:47:58;;;;;;;11.48;4.65;;;;;;;-0.18;55.63;101779.56;5044292;28;20040;-72
2022/01/10 07:50:24;;;;;;;12.95;4.03;;;;;;;-0.23;55.33;101783.75;5055133;28;20293;-72
2022/01/10 07:52:52;;;;;;;14.43;5.65;;;;;;;-0.25;55.82;101795.69;5036475;28;20938;-72
2022/01/10 07:55:18;;;;;;;11.68;5.00;;;;;;;-0.36;56.25;101795.47;5038713;28;20400;-72
2022/01/10 07:57:45;;;;;;;12.90;4.60;;;;;;;-0.31;55.91;101803.28;5041707;28;20051;-72
2022/01/10 08:00:12;;;;;;;10.40;4.18;;;;;;;-0.29;55.85;101811.88;5054961;28;20068;-72
2022/01/10 08:02:43;;;;;;;21.38;5.03;;;;;;;-0.31;55.69;101820.41;5040529;28;20131;-72
2022/01/10 08:05:11;;;;;;;18.83;4.97;;;;;;;-0.37;56.29;101821.13;5023511;28;20041;-71
2022/01/10 08:07:37;;;;;;;10.73;4.97;;;;;;;-0.26;56.02;101823.91;5043604;28;20067;-72
2022/01/10 08:10:04;;;;;;;19.10;5.18;;;;;;;-0.18;56.03;101828.38;5033458;28;20036;-73
2022/01/10 08:12:36;;;;;;;10.85;4.75;;;;;;;-0.10;56.36;101830.22;5044342;28;20065;-72
2022/01/10 08:15:03;;;;;;;14.57;5.63;;;;;;;-0.02;55.96;101831.25;5023668;28;20503;-72
2022/01/10 08:17:29;;;;;;;16.27;4.75;;;;;;;-0.00;56.23;101837.28;5057544;28;20132;-73
2022/01/10 08:19:54;;;;;;;11.55;4.30;;;;;;;0.08;55.90;101846.03;5023105;28;20036;-72
2022/01/10 08:22:20;;;;;;;17.60;5.22;;;;;;;0.19;56.21;101844.53;5049013;28;20133;-72
2022/01/10 08:24:47;;;;;;;20.90;5.32;;;;;;;0.47;56.46;101853.59;5022621;28;20040;-72
2022/01/10 08:27:15;;;;;;;18.50;4.97;;;;;;;0.87;55.93;101861.13;5038153;28;20044;-72
2022/01/10 08:29:42;;;;;;;16.63;4.55;;;;;;;1.22;56.39;101866.81;5045305;28;20318;-72
2022/01/10 08:32:08;;;;;;;16.27;6.78;;;;;;;1.56;54.91;101864.75;5052654;28;20052;-73
2022/01/10 08:34:37;;;;;;;13.23;5.50;;;;;;;1.40;53.91;101879.13;5030634;28;20036;-72
2022/01/10 08:37:02;;;;;;;10.73;4.43;;;;;;;1.32;53.82;101885.84;5023488;28;20158;-72
2022/01/10 08:39:30;;;;;;;15.77;4.03;;;;;;;1.27;54.17;101890.06;5038259;28;20040;-72
2022/01/10 08:41:57;;;;;;;17.73;4.80;;;;;;;1.23;54.61;101894.28;5038181;28;20059;-72
2022/01/10 08:44:23;;;;;;;12.63;5.57;;;;;;;1.30;54.66;101900.41;5050625;28;20036;-72
2022/01/10 08:46:49;;;;;;;11.95;4.43;;;;;;;1.28;54.68;101899.50;5017480;28;20033;-71
2022/01/10 08:49:14;;;;;;;13.15;4.65;;;;;;;1.31;54.06;101905.59;5035504;28;20136;-71
2022/01/10 08:51:40;;;;;;;11.38;4.50;;;;;;;1.36;54.35;101908.22;5033652;28;20036;-71
2022/01/10 08:54:06;;;;;;;14.60;4.72;;;;;;;1.31;54.22;101915.88;5050967;28;20048;-72
2022/01/10 08:56:32;;;;;;;13.23;5.00;;;;;;;1.46;54.75;101915.31;5043426;28;20029;-71
2022/01/10 08:58:58;;;;;;;18.02;4.72;;;;;;;1.74;54.61;101925.97;5043238;28;20642;-71
2022/01/10 09:01:24;;;;;;;12.93;5.18;;;;;;;1.96;54.34;101924.56;5053611;28;20049;-72
2022/01/10 09:03:50;;;;;;;16.45;4.97;;;;;;;1.85;53.58;101937.31;5049476;28;20459;-72
2022/01/10 09:06:16;;;;;;;13.65;6.75;;;;;;;1.79;52.65;101949.25;5040482;28;20055;-71
2022/01/10 09:08:43;;;;;;;14.63;5.97;;;;;;;2.02;53.05;101952.13;5041512;28;20494;-71
2022/01/10 09:11:13;;;;;;;11.30;4.72;;;;;;;1.93;52.75;101958.91;5029092;28;20040;-72
2022/01/10 09:13:41;;;;;;;11.60;4.05;;;;;;;1.84;53.32;101958.78;5044578;28;20033;-73
2022/01/10 09:16:08;;;;;;;13.13;3.75;;;;;;;1.65;53.49;101955.06;5043263;28;20502;-72
2022/01/10 09:18:34;;;;;;;11.43;3.70;;;;;;;1.55;53.66;101963.53;5030161;28;20048;-72
2022/01/10 09:21:00;;;;;;;16.00;4.90;;;;;;;1.39;53.38;101970.09;5017202;28;20028;-72
2022/01/10 09:23:26;;;;;;;19.70;4.95;;;;;;;1.16;53.27;101972.31;5049015;28;20669;-73
2022/01/10 09:25:55;;;;;;;14.80;4.80;;;;;;;1.11;53.98;101974.81;5042634;28;20047;-73
2022/01/10 09:28:26;;;;;;;15.57;4.28;;;;;;;1.16;54.23;101981.75;5034718;28;20044;-72
2022/01/10 09:30:51;;;;;;;13.25;4.40;;;;;;;1.30;54.48;101980.25;5035619;28;20072;-73
2022/01/10 09:33:17;;;;;;;9.75;4.88;;;;;;;1.54;54.74;101986.69;5023512;28;20065;-72
2022/01/10 09:35:43;;;;;;;15.73;5.22;;;;;;;1.86;54.33;101992.31;5039235;28;20083;-73
2022/01/10 09:38:10;;;;;;;14.25;4.57;;;;;;;2.09;53.45;101996.06;5049842;28;20098;-73
2022/01/10 09:40:35;;;;;;;13.35;4.25;;;;;;;2.63;54.68;102006.19;5052069;28;20471;-73
2022/01/10 09:43:03;;;;;;;15.82;4.63;;;;;;;3.05;51.49;102010.94;5017136;28;20094;-73
2022/01/10 09:45:30;;;;;;;16.25;4.75;;;;;;;3.67;52.42;102016.63;5029443;28;20743;-73
2022/01/10 09:47:56;;;;;;;13.68;5.15;;;;;;;4.15;52.96;102026.44;5032715;28;20147;-73
2022/01/10 09:50:21;;;;;;;14.75;5.32;;;;;;;4.46;50.87;102047.28;5042839;28;20816;-73
2022/01/10 09:52:50;;;;;;;21.55;6.53;;;;;;;4.62;51.34;102043.88;5049566;28;20040;-72
2022/01/10 09:55:16;;;;;;;8.65;4.47;;;;;;;4.80;51.37;102040.50;5049699;28;20502;-72
2022/01/10 09:57:42;;;;;;;13.43;5.47;;;;;;;4.88;48.45;102045.75;5051734;28;20073;-73
2022/01/10 10:00:09;;;;;;;10.07;4.55;;;;;;;5.13;50.06;102046.66;5037211;28;20391;-73
2022/01/10 10:02:42;;;;;;;10.63;4.47;;;;;;;4.77;46.54;102055.19;5044007;28;20037;-73
2022/01/10 10:05:11;;;;;;;12.98;4.53;;;;;;;4.84;47.37;102062.97;5033515;28;20047;-74
2022/01/10 10:07:40;;;;;;;11.80;4.93;;;;;;;4.96;48.37;102069.06;5049085;28;20508;-73
2022/01/10 10:10:11;;;;;;;11.88;4.28;;;;;;;4.56;45.79;102076.66;5033422;28;21402;-73
2022/01/10 10:12:39;;;;;;;13.40;4.78;;;;;;;4.34;46.84;102070.50;5036768;28;20036;-73
2022/01/10 10:15:06;;;;;;;11.70;5.38;;;;;;;4.95;48.28;102064.75;5032142;28;20048;-73
2022/01/10 10:17:34;;;;;;;18.45;5.32;;;;;;;5.25;46.83;102062.19;5018257;28;20396;-73
2022/01/10 10:20:00;;;;;;;10.43;4.90;;;;;;;5.44;46.71;102077.81;5042244;28;20032;-73
2022/01/10 10:22:25;;;;;;;17.40;4.82;;;;;;;5.54;43.24;102074.31;5025940;28;20438;-74
2022/01/10 10:24:51;;;;;;;10.15;4.40;;;;;;;5.40;45.56;102078.66;5044672;28;20055;-73
2022/01/10 10:27:20;;;;;;;11.45;4.30;;;;;;;5.48;45.30;102087.31;5014319;28;20095;-74
2022/01/10 10:29:47;;;;;;;14.27;4.97;;;;;;;5.72;44.31;102082.97;5035289;28;20525;-73
2022/01/10 10:32:15;;;;;;;11.38;3.63;;;;;;;5.57;45.58;102086.44;5040640;28;20041;-72
2022/01/10 10:34:42;;;;;;;8.75;3.08;;;;;;;5.84;45.29;102093.38;5047226;28;20037;-73
2022/01/10 10:37:14;;;;;;;15.60;3.45;;;;;;;5.18;45.84;102096.75;5041478;28;20534;-74
2022/01/10 10:39:41;;;;;;;12.38;4.32;;;;;;;5.17;46.11;102099.38;5050438;28;20037;-73
2022/01/10 10:42:12;;;;;;;14.60;4.45;;;;;;;5.18;45.67;102107.13;5014701;28;20045;-74
2022/01/10 10:44:39;;;;;;;14.35;5.22;;;;;;;5.49;45.37;102104.59;5052129;28;20178;-74
2022/01/10 10:47:05;;;;;;;12.95;4.53;;;;;;;5.76;45.48;102108.91;5047484;28;20078;-74
2022/01/10 10:49:36;;;;;;;10.50;3.80;;;;;;;5.23;46.15;102108.03;5028709;28;20116;-74
2022/01/10 10:52:05;;;;;;;8.20;4.90;;;;;;;5.22;45.93;102103.69;5048079;28;20074;-74
2022/01/10 10:54:34;;;;;;;19.20;4.45;;;;;;;5.07;47.52;102105.38;5032665;28;20437;-73
2022/01/10 10:57:01;;;;;;;13.82;4.97;;;;;;;5.10;46.73;102110.56;5025165;28;20029;-74
2022/01/10 10:59:32;;;;;;;6.68;2.95;;;;;;;5.00;47.30;102120.91;5050484;28;20036;-73
2022/01/10 11:01:58;;;;;;;13.27;4.72;;;;;;;5.02;45.94;102126.09;5046381;28;20438;-74
2022/01/10 11:04:25;;;;;;;9.15;4.65;;;;;;;4.87;47.37;102124.28;5034171;28;20021;-73
2022/01/10 11:06:51;;;;;;;19.83;5.47;;;;;;;4.83;48.63;102132.88;5027400;28;20105;-73
2022/01/10 11:09:18;;;;;;;18.35;4.45;;;;;;;5.07;47.75;102132.16;5050238;28;20160;-74
2022/01/10 11:11:46;;;;;;;14.55;3.28;;;;;;;4.91;47.20;102130.38;5047751;28;20036;-73
2022/01/10 11:14:16;;;;;;;18.52;4.93;;;;;;;4.57;48.56;102125.88;5046680;28;20056;-73
2022/01/10 11:16:44;;;;;;;9.95;4.05;;;;;;;4.45;48.68;102135.28;5016612;28;20140;-73
2022/01/10 11:19:21;;;;;;;12.38;4.45;;;;;;;4.80;48.16;102136.34;5045730;28;20044;-74
2022/01/10 11:21:54;;;;;;;16.15;3.92;;;;;;;4.47;48.60;102133.59;5025111;28;20453;-73
2022/01/10 11:24:46;;;;;;;16.05;4.00;;;;;;;4.76;48.79;102137.16;5024277;28;20037;-73
2022/01/10 11:27:32;;;;;;;15.00;4.53;;;;;;;4.92;48.08;102140.75;5018180;28;20048;-74
2022/01/10 11:29:59;;;;;;;14.38;3.75;;;;;;;5.47;47.49;102142.63;5034659;28;20033;-73
2022/01/10 11:32:57;;;;;;;13.95;4.65;;;;;;;4.72;47.94;102148.41;5018120;28;20041;-73
2022/01/10 11:35:28;;;;;;;14.13;4.30;;;;;;;5.24;47.68;102158.13;5050156;28;20506;-73
2022/01/10 11:37:54;;;;;;;9.10;3.60;;;;;;;5.88;47.71;102167.72;5048641;28;20097;-73
2022/01/10 11:40:21;;;;;;;10.75;3.53;;;;;;;6.26;46.35;102164.25;5023662;28;20242;-73
2022/01/10 11:42:54;;;;;;;12.85;4.07;;;;;;;6.35;46.60;102166.00;5024228;28;20040;-73